createdAt,value
2022-10-24T00:00:19.772Z,42.86
2022-10-24T00:00:51.360Z,42.96
2022-10-24T00:01:23.253Z,42.85
2022-10-24T00:01:54.719Z,43.04
2022-10-24T00:02:26.304Z,43.19
2022-10-24T00:02:57.831Z,43.07
2022-10-24T00:03:29.384Z,42.98
2022-10-24T00:04:01.053Z,43.20
2022-10-24T00:04:34.963Z,42.97
2022-10-24T00:05:06.512Z,42.97
2022-10-24T00:05:41.205Z,43.07
2022-10-24T00:06:12.748Z,42.86
2022-10-24T00:06:44.297Z,43.11
2022-10-24T00:07:15.840Z,43.18
2022-10-24T00:07:48.447Z,43.11
2022-10-24T00:08:19.893Z,43.21
2022-10-24T00:08:51.479Z,42.96
2022-10-24T00:09:22.917Z,43.14
2022-10-24T00:09:54.438Z,43.17
2022-10-24T00:10:25.940Z,43.14
2022-10-24T00:10:57.439Z,43.10
2022-10-24T00:11:28.979Z,43.10
2022-10-24T00:12:00.543Z,43.27
2022-10-24T00:12:32.141Z,43.03
2022-10-24T00:13:03.917Z,43.19
2022-10-24T00:13:35.425Z,43.17
2022-10-24T00:14:06.864Z,43.11
2022-10-24T00:14:38.319Z,43.03
2022-10-24T00:15:09.886Z,43.08
2022-10-24T00:15:45.332Z,42.96
2022-10-24T00:16:16.870Z,43.16
2022-10-24T00:16:48.394Z,42.86
2022-10-24T00:17:19.894Z,43.19
2022-10-24T00:17:51.403Z,43.30
2022-10-24T00:18:22.901Z,43.27
2022-10-24T00:18:54.526Z,43.17
2022-10-24T00:19:26.068Z,43.13
2022-10-24T00:19:57.657Z,43.07
2022-10-24T00:20:29.235Z,43.24
2022-10-24T00:21:00.810Z,43.23
2022-10-24T00:21:32.359Z,43.09
2022-10-24T00:22:03.845Z,43.08
2022-10-24T00:22:35.351Z,42.94
2022-10-24T00:23:06.814Z,43.00
2022-10-24T00:23:38.442Z,43.05
2022-10-24T00:24:09.976Z,43.05
2022-10-24T00:24:41.543Z,43.00
2022-10-24T00:25:13.016Z,42.88
2022-10-24T00:25:44.612Z,42.89
2022-10-24T00:26:16.224Z,42.96
2022-10-24T00:26:47.675Z,43.02
2022-10-24T00:27:19.133Z,43.00
2022-10-24T00:27:50.689Z,43.10
2022-10-24T00:28:22.206Z,43.12
2022-10-24T00:28:53.793Z,43.13
2022-10-24T00:29:25.258Z,43.08
2022-10-24T00:29:56.909Z,42.96
2022-10-24T00:30:28.344Z,42.93
2022-10-24T00:30:59.865Z,42.93
2022-10-24T00:31:31.367Z,42.99
2022-10-24T00:32:02.906Z,42.94
2022-10-24T00:32:34.420Z,42.96
2022-10-24T00:33:05.902Z,43.14
2022-10-24T00:33:37.386Z,43.02
2022-10-24T00:34:08.895Z,43.09
2022-10-24T00:34:40.326Z,42.90
2022-10-24T00:35:11.875Z,43.01
2022-10-24T00:35:43.404Z,43.21
2022-10-24T00:36:15.593Z,43.38
2022-10-24T00:36:47.182Z,42.85
2022-10-24T00:37:55.005Z,42.83
2022-10-24T00:38:26.537Z,42.85
2022-10-24T00:38:58.076Z,43.10
2022-10-24T00:39:29.562Z,42.77
2022-10-24T00:40:01.065Z,42.68
2022-10-24T00:40:32.471Z,42.89
2022-10-24T00:41:03.978Z,43.00
2022-10-24T00:41:36.337Z,43.03
2022-10-24T00:42:07.771Z,42.96
2022-10-24T00:42:39.333Z,42.97
2022-10-24T00:43:14.773Z,42.92
2022-10-24T00:43:46.284Z,42.94
2022-10-24T00:44:20.338Z,42.90
2022-10-24T00:44:54.520Z,42.87
2022-10-24T00:45:44.093Z,43.03
2022-10-24T00:46:16.441Z,42.82
2022-10-24T00:46:58.106Z,42.75
2022-10-24T00:47:29.631Z,42.69
2022-10-24T00:48:01.088Z,42.83
2022-10-24T00:48:39.808Z,42.76
2022-10-24T00:49:15.070Z,42.76
2022-10-24T00:49:48.471Z,42.79
2022-10-24T00:50:19.960Z,42.92
2022-10-24T00:50:53.056Z,42.66
2022-10-24T00:51:26.193Z,42.75
2022-10-24T00:52:00.186Z,42.93
2022-10-24T00:52:32.779Z,43.08
2022-10-24T00:53:04.281Z,42.75
2022-10-24T00:53:36.635Z,42.81
2022-10-24T00:54:08.891Z,42.84
2022-10-24T00:54:40.352Z,42.70
2022-10-24T00:55:12.038Z,42.72
2022-10-24T00:55:44.045Z,42.62
2022-10-24T00:56:15.632Z,42.66
2022-10-24T00:57:03.124Z,42.61
2022-10-24T00:57:37.953Z,42.81
2022-10-24T00:58:09.416Z,42.72
2022-10-24T00:58:40.895Z,42.71
2022-10-24T00:59:12.355Z,42.56
2022-10-24T00:59:43.818Z,42.78
2022-10-24T01:00:16.578Z,42.77
2022-10-24T01:00:48.063Z,42.62
2022-10-24T01:01:19.796Z,42.37
2022-10-24T01:01:51.438Z,42.59
2022-10-24T01:02:22.972Z,42.67
2022-10-24T01:02:54.493Z,42.71
2022-10-24T01:03:26.172Z,42.67
2022-10-24T01:03:57.721Z,42.53
2022-10-24T01:04:29.253Z,42.60
2022-10-24T01:05:00.735Z,42.64
2022-10-24T01:05:34.166Z,42.67
2022-10-24T01:06:14.421Z,42.72
2022-10-24T01:06:47.073Z,42.81
2022-10-24T01:07:24.629Z,42.70
2022-10-24T01:08:16.944Z,42.63
2022-10-24T01:09:03.821Z,42.67
2022-10-24T01:09:45.105Z,42.63
2022-10-24T01:10:22.649Z,42.44
2022-10-24T01:11:13.339Z,42.58
2022-10-24T01:11:53.519Z,42.63
2022-10-24T01:12:25.185Z,42.72
2022-10-24T01:13:02.898Z,42.77
2022-10-24T01:13:48.107Z,42.53
2022-10-24T01:14:37.805Z,42.70
2022-10-24T01:15:17.886Z,42.43
2022-10-24T01:15:51.174Z,42.63
2022-10-24T01:16:29.849Z,42.63
2022-10-24T01:17:04.215Z,42.49
2022-10-24T01:17:39.270Z,42.66
2022-10-24T01:18:12.696Z,42.55
2022-10-24T01:18:47.705Z,42.56
2022-10-24T01:19:37.521Z,42.57
2022-10-24T01:20:27.320Z,42.36
2022-10-24T01:21:25.202Z,42.37
2022-10-24T01:21:57.344Z,42.18
2022-10-24T01:22:47.430Z,42.10
2022-10-24T01:23:33.998Z,42.21
2022-10-24T01:24:05.447Z,42.27
2022-10-24T01:24:36.877Z,42.29
2022-10-24T01:25:14.444Z,42.29
2022-10-24T01:25:48.642Z,42.34
2022-10-24T01:26:28.784Z,42.39
2022-10-24T01:27:18.621Z,42.17
2022-10-24T01:27:50.098Z,42.47
2022-10-24T01:28:22.162Z,42.36
2022-10-24T01:28:57.301Z,42.29
2022-10-24T01:29:47.181Z,42.18
2022-10-24T01:30:18.699Z,42.31
2022-10-24T01:30:51.445Z,42.18
2022-10-24T01:31:25.813Z,42.24
2022-10-24T01:32:05.235Z,42.09
2022-10-24T01:32:38.546Z,41.91
2022-10-24T01:33:20.713Z,41.85
2022-10-24T01:33:54.374Z,42.00
2022-10-24T01:34:27.096Z,41.94
2022-10-24T01:35:11.031Z,42.27
2022-10-24T01:35:43.484Z,42.16
2022-10-24T01:36:20.073Z,42.19
2022-10-24T01:36:54.214Z,42.22
2022-10-24T01:37:28.241Z,42.20
2022-10-24T01:38:01.725Z,42.08
2022-10-24T01:38:40.724Z,42.17
2022-10-24T01:39:13.307Z,42.41
2022-10-24T01:39:46.529Z,42.29
2022-10-24T01:40:20.449Z,42.23
2022-10-24T01:40:54.891Z,42.14
2022-10-24T01:41:27.003Z,42.20
2022-10-24T01:41:58.524Z,42.04
2022-10-24T01:42:29.953Z,42.36
2022-10-24T01:43:03.440Z,42.09
2022-10-24T01:43:35.978Z,42.19
2022-10-24T01:44:07.415Z,41.91
2022-10-24T01:44:42.576Z,42.04
2022-10-24T01:45:16.397Z,42.03
2022-10-24T01:45:49.076Z,42.16
2022-10-24T01:46:27.658Z,42.19
2022-10-24T01:47:24.960Z,41.98
2022-10-24T01:47:56.594Z,42.12
2022-10-24T01:48:28.271Z,42.33
2022-10-24T01:49:01.813Z,42.28
2022-10-24T01:49:34.332Z,42.22
2022-10-24T01:50:06.610Z,42.06
2022-10-24T01:50:38.154Z,42.05
2022-10-24T01:51:09.669Z,41.83
2022-10-24T01:51:41.172Z,42.14
2022-10-24T01:52:45.709Z,42.15
2022-10-24T01:53:18.980Z,42.04
2022-10-24T01:53:52.844Z,41.93
2022-10-24T01:54:24.403Z,41.97
2022-10-24T01:54:55.885Z,42.17
2022-10-24T01:55:27.415Z,42.09
2022-10-24T01:55:58.926Z,42.29
2022-10-24T01:56:30.459Z,41.97
2022-10-24T01:57:02.061Z,41.96
2022-10-24T01:57:33.702Z,41.93
2022-10-24T01:58:06.337Z,41.98
2022-10-24T01:58:37.955Z,41.87
2022-10-24T01:59:29.354Z,41.94
2022-10-24T02:00:00.971Z,41.84
2022-10-24T02:00:32.588Z,42.09
2022-10-24T02:01:05.929Z,42.02
2022-10-24T02:01:37.543Z,41.87
2022-10-24T02:02:25.341Z,41.96
2022-10-24T02:03:00.891Z,41.93
2022-10-24T02:03:34.416Z,42.07
2022-10-24T02:04:06.203Z,42.02
2022-10-24T02:04:39.136Z,42.05
2022-10-24T02:05:27.666Z,42.00
2022-10-24T02:06:07.741Z,42.09
2022-10-24T02:06:40.012Z,41.98
2022-10-24T02:07:11.766Z,41.95
2022-10-24T02:07:43.496Z,41.87
2022-10-24T02:08:16.531Z,42.12
2022-10-24T02:08:48.948Z,42.03
2022-10-24T02:09:20.519Z,41.92
2022-10-24T02:09:56.869Z,42.05
2022-10-24T02:10:29.400Z,41.82
2022-10-24T02:11:01.957Z,42.06
2022-10-24T02:11:33.551Z,42.06
2022-10-24T02:12:05.286Z,42.06
2022-10-24T02:12:40.411Z,41.99
2022-10-24T02:13:13.771Z,41.81
2022-10-24T02:13:51.333Z,41.90
2022-10-24T02:14:26.005Z,41.92
2022-10-24T02:15:02.358Z,41.92
2022-10-24T02:15:35.125Z,41.84
2022-10-24T02:16:06.653Z,41.84
2022-10-24T02:16:38.136Z,41.81
2022-10-24T02:17:09.724Z,41.91
2022-10-24T02:17:41.600Z,41.78
2022-10-24T02:18:13.370Z,41.77
2022-10-24T02:18:44.885Z,41.80
2022-10-24T02:19:16.350Z,42.08
2022-10-24T02:19:47.842Z,42.14
2022-10-24T02:20:20.474Z,42.07
2022-10-24T02:20:55.758Z,42.10
2022-10-24T02:21:27.274Z,41.96
2022-10-24T02:22:17.473Z,41.83
2022-10-24T02:22:57.231Z,41.98
2022-10-24T02:23:39.520Z,42.07
2022-10-24T02:24:11.022Z,42.12
2022-10-24T02:24:44.399Z,41.98
2022-10-24T02:25:26.117Z,41.77
2022-10-24T02:25:58.778Z,42.19
2022-10-24T02:26:33.719Z,41.99
2022-10-24T02:27:12.731Z,41.87
2022-10-24T02:27:48.820Z,41.94
2022-10-24T02:28:23.642Z,41.93
2022-10-24T02:28:55.338Z,42.03
2022-10-24T02:29:32.744Z,42.05
2022-10-24T02:30:07.770Z,42.05
2022-10-24T02:30:43.121Z,42.00
2022-10-24T02:31:15.621Z,42.05
2022-10-24T02:31:51.167Z,42.00
2022-10-24T02:32:29.552Z,42.04
2022-10-24T02:33:01.081Z,42.04
2022-10-24T02:33:32.604Z,41.99
2022-10-24T02:34:04.284Z,41.79
2022-10-24T02:34:35.797Z,41.88
2022-10-24T02:35:07.817Z,41.81
2022-10-24T02:35:39.307Z,41.99
2022-10-24T02:36:10.847Z,41.85
2022-10-24T02:36:42.387Z,41.77
2022-10-24T02:37:13.865Z,41.78
2022-10-24T02:37:49.008Z,41.81
2022-10-24T02:38:30.423Z,41.89
2022-10-24T02:39:01.825Z,41.95
2022-10-24T02:39:33.300Z,41.96
2022-10-24T02:40:05.739Z,41.88
2022-10-24T02:40:37.225Z,42.06
2022-10-24T02:41:09.634Z,41.91
2022-10-24T02:41:41.295Z,42.16
2022-10-24T02:42:12.777Z,42.10
2022-10-24T02:42:44.417Z,42.10
2022-10-24T02:43:15.907Z,42.07
2022-10-24T02:43:47.415Z,41.75
2022-10-24T02:44:18.877Z,41.80
2022-10-24T02:44:50.462Z,41.89
2022-10-24T02:45:22.154Z,41.81
2022-10-24T02:45:53.650Z,41.92
2022-10-24T02:46:25.164Z,42.04
2022-10-24T02:46:56.845Z,42.03
2022-10-24T02:47:28.359Z,42.08
2022-10-24T02:48:00.521Z,41.95
2022-10-24T02:48:34.554Z,41.83
2022-10-24T02:49:06.087Z,41.88
2022-10-24T02:49:37.648Z,42.01
2022-10-24T02:50:09.186Z,41.79
2022-10-24T02:50:40.662Z,41.94
2022-10-24T02:51:12.891Z,42.06
2022-10-24T02:51:44.397Z,41.80
2022-10-24T02:52:16.129Z,41.61
2022-10-24T02:52:47.935Z,42.02
2022-10-24T02:53:20.112Z,41.80
2022-10-24T02:53:51.568Z,41.76
2022-10-24T02:54:23.235Z,41.57
2022-10-24T02:54:54.782Z,41.80
2022-10-24T02:55:26.376Z,41.66
2022-10-24T02:55:57.988Z,41.84
2022-10-24T02:56:29.515Z,41.67
2022-10-24T02:57:01.668Z,41.84
2022-10-24T02:57:33.139Z,41.60
2022-10-24T02:58:04.618Z,41.67
2022-10-24T02:58:36.159Z,41.71
2022-10-24T02:59:44.159Z,41.84
2022-10-24T03:00:15.759Z,41.62
2022-10-24T03:00:47.327Z,41.82
2022-10-24T03:01:19.023Z,41.30
2022-10-24T03:01:50.816Z,41.25
2022-10-24T03:02:22.555Z,40.99
2022-10-24T03:02:54.084Z,41.38
2022-10-24T03:03:25.569Z,41.48
2022-10-24T03:03:57.108Z,41.45
2022-10-24T03:04:28.635Z,41.58
2022-10-24T03:05:00.335Z,41.46
2022-10-24T03:05:31.930Z,41.42
2022-10-24T03:06:03.541Z,41.43
2022-10-24T03:06:35.022Z,41.35
2022-10-24T03:07:06.484Z,41.56
2022-10-24T03:07:38.081Z,41.29
2022-10-24T03:08:09.665Z,41.30
2022-10-24T03:08:41.174Z,40.87
2022-10-24T03:09:12.654Z,41.16
2022-10-24T03:09:44.164Z,41.26
2022-10-24T03:10:15.643Z,41.29
2022-10-24T03:10:47.143Z,41.47
2022-10-24T03:11:18.629Z,41.42
2022-10-24T03:11:50.145Z,41.31
2022-10-24T03:12:21.651Z,41.43
2022-10-24T03:12:53.153Z,41.39
2022-10-24T03:13:24.708Z,41.28
2022-10-24T03:13:56.293Z,41.24
2022-10-24T03:14:27.852Z,41.42
2022-10-24T03:14:59.331Z,41.35
2022-10-24T03:15:30.836Z,41.37
2022-10-24T03:16:02.300Z,41.39
2022-10-24T03:16:33.848Z,41.21
2022-10-24T03:17:05.394Z,41.37
2022-10-24T03:17:36.893Z,41.45
2022-10-24T03:18:08.340Z,41.27
2022-10-24T03:18:39.860Z,41.26
2022-10-24T03:19:11.315Z,41.23
2022-10-24T03:19:42.929Z,41.22
2022-10-24T03:20:14.886Z,41.39
2022-10-24T03:20:46.398Z,41.34
2022-10-24T03:21:17.893Z,41.42
2022-10-24T03:21:49.417Z,41.53
2022-10-24T03:22:20.909Z,41.52
2022-10-24T03:22:52.468Z,41.37
2022-10-24T03:23:23.924Z,41.43
2022-10-24T03:23:55.638Z,41.36
2022-10-24T03:24:37.240Z,41.46
2022-10-24T03:25:16.435Z,41.35
2022-10-24T03:25:48.099Z,41.27
2022-10-24T03:26:19.618Z,41.54
2022-10-24T03:26:51.139Z,41.34
2022-10-24T03:27:22.749Z,41.57
2022-10-24T03:27:54.392Z,41.38
2022-10-24T03:28:25.906Z,41.45
2022-10-24T03:28:57.425Z,41.40
2022-10-24T03:29:28.917Z,41.27
2022-10-24T03:30:01.013Z,41.07
2022-10-24T03:30:32.509Z,41.34
2022-10-24T03:31:04.092Z,41.29
2022-10-24T03:31:35.584Z,41.43
2022-10-24T03:32:07.151Z,41.37
2022-10-24T03:32:38.724Z,41.27
2022-10-24T03:33:10.270Z,41.43
2022-10-24T03:33:41.776Z,41.14
2022-10-24T03:34:13.388Z,41.35
2022-10-24T03:34:45.023Z,41.47
2022-10-24T03:35:16.668Z,41.19
2022-10-24T03:35:51.330Z,41.44
2022-10-24T03:36:22.883Z,41.22
2022-10-24T03:36:54.345Z,41.46
2022-10-24T03:37:25.909Z,41.39
2022-10-24T03:37:57.396Z,41.64
2022-10-24T03:38:29.041Z,41.59
2022-10-24T03:39:00.596Z,41.68
2022-10-24T03:39:32.215Z,41.30
2022-10-24T03:40:03.890Z,41.31
2022-10-24T03:40:35.766Z,41.50
2022-10-24T03:41:07.338Z,41.28
2022-10-24T03:41:38.823Z,41.34
2022-10-24T03:42:10.357Z,41.50
2022-10-24T03:42:42.073Z,41.23
2022-10-24T03:43:13.892Z,41.14
2022-10-24T03:43:45.389Z,41.26
2022-10-24T03:44:17.012Z,41.51
2022-10-24T03:44:48.559Z,41.19
2022-10-24T03:45:20.082Z,41.26
2022-10-24T03:45:51.537Z,41.46
2022-10-24T03:46:23.060Z,41.38
2022-10-24T03:46:54.551Z,41.64
2022-10-24T03:47:26.144Z,41.48
2022-10-24T03:47:57.621Z,41.25
2022-10-24T03:48:29.248Z,41.32
2022-10-24T03:49:33.202Z,41.41
2022-10-24T03:50:05.424Z,41.31
2022-10-24T03:50:36.992Z,41.15
2022-10-24T03:51:08.570Z,41.49
2022-10-24T03:51:40.055Z,41.20
2022-10-24T03:52:11.893Z,41.29
2022-10-24T03:52:43.806Z,41.41
2022-10-24T03:53:15.448Z,41.47
2022-10-24T03:53:46.971Z,41.28
2022-10-24T03:54:18.520Z,41.18
2022-10-24T03:54:50.026Z,41.45
2022-10-24T03:55:21.708Z,41.48
2022-10-24T03:55:53.232Z,41.48
2022-10-24T03:56:24.780Z,41.17
2022-10-24T03:56:56.316Z,41.61
2022-10-24T03:57:27.855Z,41.47
2022-10-24T03:57:59.425Z,41.56
2022-10-24T03:58:30.947Z,41.33
2022-10-24T03:59:02.541Z,41.12
2022-10-24T03:59:33.984Z,41.53
2022-10-24T04:00:05.870Z,41.41
2022-10-24T04:00:37.441Z,41.42
2022-10-24T04:01:09.043Z,41.35
2022-10-24T04:01:40.850Z,41.45
2022-10-24T04:02:12.435Z,41.40
2022-10-24T04:02:44.065Z,41.44
2022-10-24T04:03:15.585Z,41.23
2022-10-24T04:03:47.087Z,41.43
2022-10-24T04:04:18.591Z,41.25
2022-10-24T04:04:50.050Z,41.39
2022-10-24T04:05:21.513Z,41.35
2022-10-24T04:05:53.337Z,41.13
2022-10-24T04:06:24.801Z,41.11
2022-10-24T04:06:56.332Z,41.16
2022-10-24T04:07:27.891Z,41.24
2022-10-24T04:07:59.483Z,41.28
2022-10-24T04:08:31.018Z,41.09
2022-10-24T04:09:02.566Z,41.40
2022-10-24T04:09:34.140Z,41.14
2022-10-24T04:10:06.049Z,41.25
2022-10-24T04:10:37.540Z,41.29
2022-10-24T04:11:09.046Z,41.21
2022-10-24T04:11:40.542Z,41.09
2022-10-24T04:12:12.020Z,41.06
2022-10-24T04:12:43.511Z,41.21
2022-10-24T04:13:15.170Z,41.39
2022-10-24T04:13:46.695Z,41.27
2022-10-24T04:14:18.219Z,41.41
2022-10-24T04:14:49.730Z,41.30
2022-10-24T04:15:21.255Z,41.15
2022-10-24T04:15:52.732Z,41.07
2022-10-24T04:16:24.185Z,41.20
2022-10-24T04:16:55.692Z,41.21
2022-10-24T04:17:27.174Z,41.22
2022-10-24T04:17:58.688Z,41.36
2022-10-24T04:18:30.149Z,41.21
2022-10-24T04:19:01.725Z,41.23
2022-10-24T04:19:33.220Z,41.48
2022-10-24T04:20:05.184Z,41.18
2022-10-24T04:20:36.706Z,41.13
2022-10-24T04:21:08.201Z,41.00
2022-10-24T04:21:39.777Z,41.21
2022-10-24T04:22:11.298Z,41.19
2022-10-24T04:22:43.110Z,41.10
2022-10-24T04:23:14.784Z,41.17
2022-10-24T04:23:46.389Z,41.08
2022-10-24T04:24:17.868Z,41.03
2022-10-24T04:24:49.552Z,41.18
2022-10-24T04:25:21.003Z,41.25
2022-10-24T04:25:52.743Z,41.21
2022-10-24T04:26:24.391Z,41.39
2022-10-24T04:26:55.851Z,41.16
2022-10-24T04:27:27.527Z,41.07
2022-10-24T04:27:58.973Z,41.07
2022-10-24T04:28:30.447Z,41.11
2022-10-24T04:29:01.901Z,41.41
2022-10-24T04:29:33.638Z,41.09
2022-10-24T04:30:05.380Z,41.18
2022-10-24T04:30:36.910Z,41.18
2022-10-24T04:31:08.419Z,40.91
2022-10-24T04:31:39.950Z,41.07
2022-10-24T04:32:11.529Z,41.25
2022-10-24T04:32:43.393Z,41.19
2022-10-24T04:33:15.035Z,41.16
2022-10-24T04:33:46.652Z,41.10
2022-10-24T04:34:18.133Z,41.11
2022-10-24T04:34:49.759Z,41.08
2022-10-24T04:35:21.259Z,41.11
2022-10-24T04:35:52.908Z,41.29
2022-10-24T04:36:24.437Z,41.06
2022-10-24T04:36:55.984Z,41.07
2022-10-24T04:37:27.515Z,41.29
2022-10-24T04:37:59.012Z,41.35
2022-10-24T04:38:33.520Z,41.12
2022-10-24T04:39:05.384Z,41.05
2022-10-24T04:39:36.944Z,41.11
2022-10-24T04:40:08.633Z,41.21
2022-10-24T04:40:40.118Z,41.20
2022-10-24T04:41:12.374Z,41.03
2022-10-24T04:41:44.030Z,40.93
2022-10-24T04:42:15.618Z,41.08
2022-10-24T04:42:47.392Z,41.09
2022-10-24T04:43:19.042Z,41.17
2022-10-24T04:43:51.830Z,40.95
2022-10-24T04:44:23.364Z,41.05
2022-10-24T04:44:54.912Z,41.26
2022-10-24T04:45:26.427Z,40.93
2022-10-24T04:45:57.944Z,40.83
2022-10-24T04:46:29.588Z,40.79
2022-10-24T04:47:01.036Z,40.78
2022-10-24T04:47:32.617Z,40.78
2022-10-24T04:48:04.156Z,40.84
2022-10-24T04:48:35.914Z,40.90
2022-10-24T04:49:07.355Z,40.95
2022-10-24T04:49:38.862Z,41.20
2022-10-24T04:50:10.368Z,41.04
2022-10-24T04:50:42.278Z,41.09
2022-10-24T04:51:17.287Z,40.94
2022-10-24T04:51:51.559Z,40.78
2022-10-24T04:52:23.098Z,41.01
2022-10-24T04:52:54.690Z,41.23
2022-10-24T04:53:26.203Z,40.97
2022-10-24T04:53:57.636Z,40.95
2022-10-24T04:54:29.165Z,40.90
2022-10-24T04:55:00.635Z,41.07
2022-10-24T04:55:32.193Z,40.92
2022-10-24T04:56:03.815Z,41.01
2022-10-24T04:56:35.331Z,41.04
2022-10-24T04:57:06.883Z,40.98
2022-10-24T04:57:38.406Z,40.98
2022-10-24T04:58:10.007Z,40.95
2022-10-24T04:58:41.497Z,40.89
2022-10-24T04:59:12.923Z,40.91
2022-10-24T04:59:44.421Z,40.79
2022-10-24T05:00:16.197Z,40.52
2022-10-24T05:00:47.665Z,40.80
2022-10-24T05:01:19.257Z,40.95
2022-10-24T05:01:50.991Z,40.59
2022-10-24T05:02:22.721Z,40.77
2022-10-24T05:02:56.810Z,40.88
2022-10-24T05:03:30.598Z,40.87
2022-10-24T05:04:33.483Z,40.75
2022-10-24T05:05:05.446Z,40.76
2022-10-24T05:05:36.959Z,40.84
2022-10-24T05:06:08.492Z,40.85
2022-10-24T05:06:42.734Z,40.92
2022-10-24T05:07:16.491Z,40.73
2022-10-24T05:07:47.988Z,40.64
2022-10-24T05:08:19.491Z,40.72
2022-10-24T05:08:51.121Z,40.72
2022-10-24T05:09:22.750Z,40.55
2022-10-24T05:09:54.329Z,40.82
2022-10-24T05:10:25.878Z,40.78
2022-10-24T05:10:57.444Z,40.68
2022-10-24T05:11:29.215Z,40.88
2022-10-24T05:12:00.856Z,40.82
2022-10-24T05:12:32.383Z,40.53
2022-10-24T05:13:03.924Z,40.57
2022-10-24T05:13:36.798Z,40.91
2022-10-24T05:14:17.812Z,40.98
2022-10-24T05:14:49.376Z,40.64
2022-10-24T05:15:20.867Z,40.63
2022-10-24T05:15:52.491Z,40.55
2022-10-24T05:16:24.025Z,40.47
2022-10-24T05:16:55.584Z,40.51
2022-10-24T05:17:27.257Z,40.78
2022-10-24T05:17:58.834Z,40.82
2022-10-24T05:18:30.384Z,40.72
2022-10-24T05:19:01.826Z,40.61
2022-10-24T05:19:33.369Z,40.69
2022-10-24T05:20:05.095Z,40.68
2022-10-24T05:20:36.649Z,40.66
2022-10-24T05:21:08.211Z,40.47
2022-10-24T05:21:39.711Z,40.49
2022-10-24T05:22:11.219Z,40.89
2022-10-24T05:22:43.122Z,40.44
2022-10-24T05:23:14.902Z,40.52
2022-10-24T05:23:46.407Z,40.66
2022-10-24T05:24:18.164Z,40.69
2022-10-24T05:24:50.080Z,40.37
2022-10-24T05:25:21.765Z,40.49
2022-10-24T05:25:53.309Z,40.56
2022-10-24T05:26:24.772Z,40.84
2022-10-24T05:26:56.318Z,40.69
2022-10-24T05:27:27.826Z,40.51
2022-10-24T05:27:59.349Z,40.66
2022-10-24T05:28:30.878Z,40.64
2022-10-24T05:29:02.445Z,40.55
2022-10-24T05:29:33.987Z,40.37
2022-10-24T05:30:05.911Z,40.44
2022-10-24T05:30:37.442Z,40.42
2022-10-24T05:31:08.922Z,40.71
2022-10-24T05:31:40.396Z,40.46
2022-10-24T05:32:11.930Z,40.41
2022-10-24T05:32:43.817Z,40.51
2022-10-24T05:33:15.495Z,40.43
2022-10-24T05:33:46.974Z,40.61
2022-10-24T05:34:18.426Z,40.25
2022-10-24T05:34:50.248Z,40.58
2022-10-24T05:35:21.774Z,40.50
2022-10-24T05:35:53.270Z,40.42
2022-10-24T05:36:24.714Z,40.36
2022-10-24T05:36:56.296Z,40.38
2022-10-24T05:37:27.793Z,40.38
2022-10-24T05:37:59.351Z,40.61
2022-10-24T05:38:30.803Z,40.54
2022-10-24T05:39:02.373Z,40.62
2022-10-24T05:39:33.947Z,40.48
2022-10-24T05:40:08.752Z,40.34
2022-10-24T05:40:40.499Z,40.54
2022-10-24T05:41:12.058Z,40.87
2022-10-24T05:41:46.275Z,40.49
2022-10-24T05:42:18.854Z,40.43
2022-10-24T05:42:50.421Z,40.25
2022-10-24T05:43:22.024Z,40.22
2022-10-24T05:43:53.649Z,40.03
2022-10-24T05:44:25.169Z,40.05
2022-10-24T05:44:56.796Z,39.90
2022-10-24T05:45:28.273Z,39.95
2022-10-24T05:45:59.845Z,40.16
2022-10-24T05:46:31.371Z,40.17
2022-10-24T05:47:02.849Z,40.16
2022-10-24T05:47:34.329Z,40.19
2022-10-24T05:48:06.099Z,40.25
2022-10-24T05:48:37.596Z,40.08
2022-10-24T05:49:09.060Z,39.93
2022-10-24T05:49:40.548Z,40.36
2022-10-24T05:50:12.066Z,40.25
2022-10-24T05:50:43.569Z,40.22
2022-10-24T05:51:15.164Z,40.00
2022-10-24T05:51:46.646Z,40.27
2022-10-24T05:52:18.201Z,40.17
2022-10-24T05:52:49.669Z,40.40
2022-10-24T05:53:21.351Z,40.09
2022-10-24T05:53:52.874Z,40.17
2022-10-24T05:54:27.597Z,40.30
2022-10-24T05:55:07.728Z,40.26
2022-10-24T05:55:39.845Z,40.57
2022-10-24T05:56:11.893Z,40.20
2022-10-24T05:56:43.427Z,40.18
2022-10-24T05:57:14.985Z,40.52
2022-10-24T05:57:46.859Z,40.28
2022-10-24T05:58:18.831Z,40.26
2022-10-24T05:58:50.276Z,40.27
2022-10-24T05:59:21.862Z,40.20
2022-10-24T05:59:53.393Z,40.38
2022-10-24T06:00:24.923Z,40.21
2022-10-24T06:00:56.413Z,40.23
2022-10-24T06:01:28.088Z,40.15
2022-10-24T06:01:59.771Z,40.06
2022-10-24T06:02:31.523Z,40.40
2022-10-24T06:03:03.091Z,39.93
2022-10-24T06:03:34.682Z,40.00
2022-10-24T06:04:07.823Z,40.10
2022-10-24T06:04:42.727Z,40.04
2022-10-24T06:05:14.214Z,40.10
2022-10-24T06:05:45.753Z,39.84
2022-10-24T06:06:17.301Z,39.99
2022-10-24T06:06:48.924Z,40.00
2022-10-24T06:07:20.465Z,40.13
2022-10-24T06:07:51.982Z,40.13
2022-10-24T06:08:23.476Z,40.14
2022-10-24T06:08:55.041Z,40.17
2022-10-24T06:09:26.574Z,40.08
2022-10-24T06:09:58.115Z,40.12
2022-10-24T06:10:29.690Z,39.91
2022-10-24T06:11:01.161Z,39.94
2022-10-24T06:11:32.648Z,40.00
2022-10-24T06:12:04.303Z,39.57
2022-10-24T06:12:35.786Z,39.68
2022-10-24T06:13:07.412Z,39.94
2022-10-24T06:13:38.938Z,39.88
2022-10-24T06:14:10.517Z,40.14
2022-10-24T06:14:42.025Z,40.05
2022-10-24T06:15:13.612Z,40.13
2022-10-24T06:15:45.108Z,40.08
2022-10-24T06:16:16.695Z,40.12
2022-10-24T06:16:48.217Z,40.04
2022-10-24T06:17:19.877Z,39.90
2022-10-24T06:17:51.427Z,39.85
2022-10-24T06:18:22.977Z,39.72
2022-10-24T06:18:54.496Z,39.87
2022-10-24T06:19:25.970Z,39.69
2022-10-24T06:19:57.531Z,39.43
2022-10-24T06:20:29.066Z,39.65
2022-10-24T06:21:00.747Z,39.80
2022-10-24T06:21:32.239Z,39.97
2022-10-24T06:22:04.210Z,39.89
2022-10-24T06:22:35.771Z,39.89
2022-10-24T06:23:07.286Z,39.80
2022-10-24T06:23:38.816Z,39.95
2022-10-24T06:24:10.296Z,39.82
2022-10-24T06:24:41.743Z,39.66
2022-10-24T06:25:13.235Z,39.87
2022-10-24T06:25:44.768Z,40.03
2022-10-24T06:26:18.249Z,39.80
2022-10-24T06:26:51.746Z,40.06
2022-10-24T06:27:23.289Z,39.97
2022-10-24T06:27:54.801Z,39.94
2022-10-24T06:28:26.402Z,40.02
2022-10-24T06:28:57.894Z,39.77
2022-10-24T06:29:29.432Z,40.11
2022-10-24T06:30:00.936Z,40.00
2022-10-24T06:30:32.544Z,39.79
2022-10-24T06:31:04.258Z,39.91
2022-10-24T06:31:35.782Z,39.91
2022-10-24T06:32:07.260Z,40.06
2022-10-24T06:32:42.107Z,39.90
2022-10-24T06:33:16.087Z,39.99
2022-10-24T06:33:47.730Z,39.78
2022-10-24T06:34:56.124Z,39.88
2022-10-24T06:35:27.622Z,40.07
2022-10-24T06:35:59.705Z,40.11
2022-10-24T06:36:31.685Z,40.13
2022-10-24T06:37:03.650Z,39.75
2022-10-24T06:37:35.195Z,39.86
2022-10-24T06:38:06.853Z,39.94
2022-10-24T06:38:38.332Z,40.06
2022-10-24T06:39:09.892Z,39.94
2022-10-24T06:39:41.394Z,39.84
2022-10-24T06:40:12.961Z,39.71
2022-10-24T06:40:44.389Z,39.91
2022-10-24T06:41:15.909Z,39.59
2022-10-24T06:41:47.438Z,40.02
2022-10-24T06:42:19.005Z,40.11
2022-10-24T06:42:50.508Z,40.15
2022-10-24T06:43:22.092Z,39.88
2022-10-24T06:43:53.585Z,40.04
2022-10-24T06:44:25.082Z,40.10
2022-10-24T06:44:56.683Z,39.84
2022-10-24T06:45:28.219Z,39.80
2022-10-24T06:45:59.695Z,39.93
2022-10-24T06:46:31.189Z,39.97
2022-10-24T06:47:02.697Z,40.20
2022-10-24T06:47:34.291Z,39.92
2022-10-24T06:48:05.938Z,40.01
2022-10-24T06:48:38.367Z,40.08
2022-10-24T06:49:09.836Z,40.17
2022-10-24T06:49:41.418Z,40.01
2022-10-24T06:50:12.894Z,39.92
2022-10-24T06:50:44.341Z,39.90
2022-10-24T06:51:16.055Z,39.87
2022-10-24T06:51:47.601Z,39.80
2022-10-24T06:52:19.123Z,39.91
2022-10-24T06:52:50.663Z,39.87
2022-10-24T06:53:22.179Z,39.71
2022-10-24T06:53:53.771Z,40.09
2022-10-24T06:54:27.789Z,39.78
2022-10-24T06:55:01.704Z,40.03
2022-10-24T06:55:33.481Z,39.78
2022-10-24T06:56:05.152Z,39.59
2022-10-24T06:56:36.725Z,39.72
2022-10-24T06:57:08.237Z,39.74
2022-10-24T06:57:39.824Z,39.86
2022-10-24T06:58:11.317Z,39.98
2022-10-24T06:58:42.994Z,39.89
2022-10-24T06:59:15.167Z,39.81
2022-10-24T06:59:46.718Z,39.86
2022-10-24T07:00:18.347Z,39.64
2022-10-24T07:00:50.017Z,39.65
2022-10-24T07:01:22.287Z,39.54
2022-10-24T07:01:54.198Z,39.72
2022-10-24T07:02:25.828Z,39.60
2022-10-24T07:02:57.439Z,39.75
2022-10-24T07:03:28.950Z,39.79
2022-10-24T07:04:00.527Z,39.75